Koksijde Air Base

EBFN · West-Vlaanderen, Flanders, 比利时

2024年7月24日 15:002024年7月25日 00:00有效
时间
星期三
15:00
>40%
星期三
16:00
>40%
星期三
17:00
>40%
星期三
18:00
>40%
星期三
19:00
>40%
星期三
20:00
>40%
星期三
21:00
>40%
星期三
22:00
>40%
星期三
23:00
>40%
代码
VFR
VFR
VFR
VFR
VFR
VFR
VFR
VFR
VFR
天气
疏云,零星散落的云朵
疏云,零星散落的云朵
疏云,零星散落的云朵
疏云,零星散落的云朵
疏云,零星散落的云朵
疏云,零星散落的云朵
疏云,零星散落的云朵
疏云,零星散落的云朵
疏云,零星散落的云朵
能见度
10 km+
10 km+
10 km+
10 km+
10 km+
10 km+
10 km+
10 km+
10 km+
天花板
-
-
-
-
-
-
-
-
-
350°
350°
350°
350°
350°
350°
350°
350°
350°
350°
350°
350°
350°
350°
350°
350°
350°
350°
速度
6 kt
6 kt
6 kt
6 kt
6 kt
6 kt
6 kt
6 kt
6 kt
阵风
温度/星期日
21:47

原版的

TAF EBFN 241141Z 2413/2422 VRB03KT 9999 SCT130
TEMPO 2413/2422 35006KT
BECMG 2420/2422 SCT050 BKN120

TAF Koksijde Air Base

Koksijde Air Base是,比利时中的中型机场。 该机场位于纬度51,09025和经度2,65294。 该机场有2条跑道: 11/29 和 2/20. 本场的ICAO机场代码为EBFN。 机场在Bruxelles FIR中。

该航空气象观测是针对Koksijde Air Base在2024年7月24日 13:41, 当地时间进行的。 从2024年7月24日 15:00到2024年7月25日 00:00, 当地时间有效.

预报

  • 在星期三 15:00和星期四 00:00之间

    • 风: 可变方向的风很小或没有。
    • 能见度: 10 km 或者更多
    • 乌云: 疏云,零星散落的云朵在13.000 ft的高度.
  • 暂时在星期三 15:00和星期四 00:00之间

    • 风: 风来自350°方向,速度为6 kt。
  • 介于星期三 22:00和星期四 00:00之间

    • 乌云: 疏云,零星散落的云朵在5.000 ft的高度 和 碎云在12.000 ft的高度.

白天

今天,太阳从06:04升起,在21:47降落。 这适用于Koksijde Air Base,世界夏令时可能有所不同。 当地时间与世界标准时间之间的时差为+2 小时。 夏令时目前正在进行中。

报告变更